createdAt,value
2023-01-26T00:01:25.587Z,35.00
2023-01-26T00:05:27.496Z,36.63
2023-01-26T00:09:29.424Z,39.40
2023-01-26T00:13:31.478Z,39.93
2023-01-26T00:17:33.363Z,36.63
2023-01-26T00:21:35.356Z,36.50
2023-01-26T00:25:40.359Z,38.47
2023-01-26T00:29:42.195Z,38.40
2023-01-26T00:33:44.025Z,39.50
2023-01-26T00:37:45.935Z,35.73
2023-01-26T00:42:06.079Z,35.43
2023-01-26T00:46:08.002Z,37.30
2023-01-26T00:50:11.410Z,39.30
2023-01-26T00:54:13.635Z,33.70
2023-01-26T00:58:15.661Z,36.17
2023-01-26T01:02:17.671Z,32.13
2023-01-26T01:06:19.707Z,37.23
2023-01-26T01:10:37.997Z,31.67
2023-01-26T01:14:54.648Z,30.70
2023-01-26T01:18:56.617Z,34.13
2023-01-26T01:23:04.524Z,32.93
2023-01-26T01:27:18.950Z,32.80
2023-01-26T01:31:20.961Z,39.53
2023-01-26T01:35:34.576Z,35.67
2023-01-26T01:39:38.798Z,40.30
2023-01-26T01:43:45.384Z,37.83
2023-01-26T01:47:49.807Z,38.00
2023-01-26T01:52:26.252Z,36.27
2023-01-26T01:56:28.315Z,38.50
2023-01-26T02:00:30.406Z,35.33
2023-01-26T02:04:32.326Z,40.93
2023-01-26T02:08:46.760Z,41.47
2023-01-26T02:12:56.762Z,45.87
2023-01-26T02:16:58.584Z,36.87
2023-01-26T02:21:09.607Z,42.77
2023-01-26T02:25:23.605Z,49.57
2023-01-26T02:29:25.441Z,48.83
2023-01-26T02:33:28.866Z,48.43
2023-01-26T02:37:30.714Z,50.10
2023-01-26T02:41:55.783Z,54.77
2023-01-26T02:45:57.846Z,48.30
2023-01-26T02:50:00.686Z,55.93
2023-01-26T02:54:02.481Z,55.90
2023-01-26T02:58:04.989Z,56.73
2023-01-26T03:02:07.157Z,53.60
2023-01-26T03:06:11.123Z,49.50
2023-01-26T03:10:13.514Z,60.27
2023-01-26T03:14:16.064Z,51.13
2023-01-26T03:18:37.223Z,54.07
2023-01-26T03:23:13.847Z,49.07
2023-01-26T03:27:27.509Z,39.43
2023-01-26T03:31:29.400Z,53.67
2023-01-26T03:35:32.612Z,45.40
2023-01-26T03:39:53.217Z,47.93
2023-01-26T03:44:13.614Z,37.63
2023-01-26T03:48:34.226Z,44.03
2023-01-26T03:53:18.895Z,38.33
2023-01-26T03:57:20.823Z,46.17
2023-01-26T04:01:28.294Z,39.97
2023-01-26T04:06:15.552Z,42.43
2023-01-26T04:10:18.442Z,38.23
2023-01-26T04:14:50.514Z,42.67
2023-01-26T04:19:11.291Z,40.73
2023-01-26T04:23:20.057Z,38.07
2023-01-26T04:27:22.070Z,35.63
2023-01-26T04:31:24.041Z,30.17
2023-01-26T04:35:25.886Z,34.67
2023-01-26T04:39:27.933Z,36.40
2023-01-26T04:43:29.755Z,34.93
2023-01-26T04:47:31.775Z,35.90
2023-01-26T04:51:33.740Z,33.43
2023-01-26T04:55:35.507Z,37.10
2023-01-26T04:59:37.514Z,42.00
2023-01-26T05:03:39.471Z,35.70
2023-01-26T05:07:41.398Z,31.03
2023-01-26T05:11:43.296Z,35.43
2023-01-26T05:15:45.152Z,35.40
2023-01-26T05:19:47.074Z,39.63
2023-01-26T05:23:48.892Z,35.83
2023-01-26T05:27:53.956Z,34.50
2023-01-26T05:31:55.844Z,34.47
2023-01-26T05:35:58.790Z,35.87
2023-01-26T05:40:00.770Z,33.07
2023-01-26T05:44:02.794Z,33.97
2023-01-26T05:48:07.307Z,40.13
2023-01-26T05:52:10.920Z,38.17
2023-01-26T05:56:12.852Z,38.40
2023-01-26T06:00:17.103Z,35.50
2023-01-26T06:04:19.177Z,34.97
2023-01-26T06:08:21.340Z,35.30
2023-01-26T06:12:23.408Z,38.73
2023-01-26T06:16:25.432Z,31.33
2023-01-26T06:20:28.487Z,33.73
2023-01-26T06:24:32.589Z,35.43
2023-01-26T06:28:37.164Z,33.37
2023-01-26T06:32:42.283Z,35.50
2023-01-26T06:36:50.976Z,39.53
2023-01-26T06:41:15.754Z,36.50
2023-01-26T06:45:24.902Z,37.07
2023-01-26T06:49:28.775Z,35.07
2023-01-26T06:53:43.358Z,34.37
2023-01-26T06:57:45.461Z,35.37
2023-01-26T07:01:48.756Z,33.40
2023-01-26T07:05:53.403Z,41.20
2023-01-26T07:09:55.330Z,36.53
2023-01-26T07:13:57.233Z,37.33
2023-01-26T07:17:59.536Z,35.53
2023-01-26T07:22:01.956Z,38.53
2023-01-26T07:26:04.476Z,36.90
2023-01-26T07:30:10.596Z,31.60
2023-01-26T07:34:12.778Z,34.80
2023-01-26T07:38:14.720Z,37.80
2023-01-26T07:42:16.695Z,36.73
2023-01-26T07:46:18.639Z,33.63
2023-01-26T07:50:21.737Z,35.70
2023-01-26T07:54:23.643Z,32.30
2023-01-26T07:58:25.434Z,33.03
2023-01-26T08:02:27.300Z,31.63
2023-01-26T08:06:29.366Z,40.33
2023-01-26T08:10:34.197Z,33.90
2023-01-26T08:14:46.422Z,39.57
2023-01-26T08:18:49.025Z,39.10
2023-01-26T08:22:50.921Z,32.47
2023-01-26T08:26:55.229Z,41.47
2023-01-26T08:30:57.359Z,37.77
2023-01-26T08:34:59.578Z,41.00
2023-01-26T08:39:02.773Z,39.60
2023-01-26T08:43:04.858Z,36.97
2023-01-26T08:47:06.839Z,34.37
2023-01-26T08:51:08.982Z,33.17
2023-01-26T08:55:10.953Z,38.87
2023-01-26T08:59:12.814Z,32.77
2023-01-26T09:03:15.020Z,33.97
2023-01-26T09:07:17.963Z,34.60
2023-01-26T09:11:19.735Z,33.13
2023-01-26T09:15:21.680Z,36.07
2023-01-26T09:19:25.757Z,35.93
2023-01-26T09:23:27.625Z,34.47
2023-01-26T09:27:29.428Z,37.20
2023-01-26T09:31:31.428Z,40.37
2023-01-26T09:35:35.139Z,38.93
2023-01-26T09:39:37.056Z,34.43
2023-01-26T09:43:49.959Z,34.13
2023-01-26T09:48:31.740Z,36.53
2023-01-26T09:52:36.872Z,34.93
2023-01-26T09:56:38.841Z,37.80
2023-01-26T10:00:49.953Z,34.27
2023-01-26T10:04:53.608Z,33.17
2023-01-26T10:08:56.504Z,34.77
2023-01-26T10:12:58.452Z,32.50
2023-01-26T10:17:00.724Z,32.47
2023-01-26T10:21:04.148Z,28.70
2023-01-26T10:25:30.046Z,33.87
2023-01-26T10:29:31.852Z,32.07
2023-01-26T10:33:37.611Z,31.63
2023-01-26T10:37:39.590Z,30.73
2023-01-26T10:41:43.023Z,32.77
2023-01-26T10:45:48.683Z,28.77
2023-01-26T10:49:50.450Z,28.80
2023-01-26T10:54:21.058Z,33.17
2023-01-26T10:58:42.921Z,30.70
2023-01-26T11:02:54.012Z,33.40
2023-01-26T11:07:11.792Z,37.87
2023-01-26T11:11:28.242Z,30.80
2023-01-26T11:15:45.302Z,33.33
2023-01-26T11:20:17.723Z,34.53
2023-01-26T11:25:09.165Z,32.47
2023-01-26T11:29:31.053Z,33.83
2023-01-26T11:33:48.841Z,30.33
2023-01-26T11:38:40.828Z,32.80
2023-01-26T11:43:01.595Z,28.80
2023-01-26T11:47:16.089Z,34.90
2023-01-26T11:51:29.919Z,31.20
2023-01-26T11:56:07.258Z,28.60
2023-01-26T12:00:30.207Z,29.53
2023-01-26T12:04:37.708Z,29.37
2023-01-26T12:08:47.826Z,24.77
2023-01-26T12:13:27.847Z,28.20
2023-01-26T12:18:18.751Z,27.57
2023-01-26T12:22:43.263Z,29.73
2023-01-26T12:26:48.309Z,28.43
2023-01-26T12:31:27.908Z,27.93
2023-01-26T12:36:17.235Z,23.53
2023-01-26T12:40:51.411Z,26.00
2023-01-26T12:45:03.220Z,27.63
2023-01-26T12:49:21.536Z,27.60
2023-01-26T12:53:34.989Z,26.13
2023-01-26T12:58:03.032Z,22.43
2023-01-26T13:02:30.590Z,22.10
2023-01-26T13:06:32.779Z,22.40
2023-01-26T13:10:47.025Z,22.60
2023-01-26T13:15:10.422Z,16.23
2023-01-26T13:19:44.588Z,18.17
2023-01-26T13:23:52.715Z,20.50
2023-01-26T13:28:04.328Z,22.07
2023-01-26T13:32:26.322Z,17.97
2023-01-26T13:36:30.752Z,18.80
2023-01-26T13:40:38.009Z,17.70
2023-01-26T13:44:45.475Z,20.10
2023-01-26T13:48:52.366Z,18.17
2023-01-26T13:52:54.281Z,20.03
2023-01-26T13:57:06.938Z,24.53
2023-01-26T14:01:12.808Z,19.70
2023-01-26T14:05:22.633Z,19.10
2023-01-26T14:09:27.759Z,19.23
2023-01-26T14:13:38.747Z,15.37
2023-01-26T14:18:01.427Z,16.40
2023-01-26T14:22:05.292Z,15.30
2023-01-26T14:26:29.521Z,18.87
2023-01-26T14:30:34.132Z,18.57
2023-01-26T14:34:35.993Z,22.53
2023-01-26T14:38:48.874Z,19.03
2023-01-26T14:42:52.533Z,20.17
2023-01-26T14:47:26.559Z,15.77
2023-01-26T14:51:28.511Z,18.07
2023-01-26T14:55:39.574Z,19.53
2023-01-26T14:59:41.372Z,20.13
2023-01-26T15:03:43.276Z,15.23
2023-01-26T15:08:02.337Z,16.80
2023-01-26T15:12:16.834Z,16.90
2023-01-26T15:16:23.098Z,16.83
2023-01-26T15:20:24.923Z,18.00
2023-01-26T15:24:26.894Z,16.80
2023-01-26T15:28:28.757Z,17.00
2023-01-26T15:32:44.534Z,17.03
2023-01-26T15:36:50.589Z,17.23
2023-01-26T15:40:52.501Z,17.00
2023-01-26T15:44:54.768Z,17.10
2023-01-26T15:48:57.045Z,19.13
2023-01-26T15:52:59.171Z,13.30
2023-01-26T15:57:03.238Z,16.30
2023-01-26T16:01:06.384Z,15.33
2023-01-26T16:05:20.633Z,20.67
2023-01-26T16:09:22.707Z,17.27
2023-01-26T16:13:27.430Z,16.70
2023-01-26T16:17:29.667Z,16.70
2023-01-26T16:21:45.743Z,15.67
2023-01-26T16:25:47.862Z,19.07
2023-01-26T16:29:49.885Z,18.27
2023-01-26T16:33:52.068Z,18.93
2023-01-26T16:37:59.736Z,19.17
2023-01-26T16:42:06.598Z,15.67
2023-01-26T16:46:14.172Z,22.80
2023-01-26T16:50:16.487Z,17.80
2023-01-26T16:54:18.459Z,17.20
2023-01-26T16:58:24.047Z,18.70
2023-01-26T17:02:28.208Z,17.77
2023-01-26T17:06:32.032Z,14.80
2023-01-26T17:10:34.008Z,20.63
2023-01-26T17:14:39.151Z,20.17
2023-01-26T17:18:41.775Z,20.57
2023-01-26T17:22:43.704Z,16.43
2023-01-26T17:26:45.670Z,20.33
2023-01-26T17:31:23.273Z,18.90
2023-01-26T17:35:25.354Z,16.60
2023-01-26T17:39:30.505Z,15.63
2023-01-26T17:43:32.632Z,16.17
2023-01-26T17:47:34.748Z,21.13
2023-01-26T17:51:36.519Z,19.60
2023-01-26T17:55:38.618Z,16.13
2023-01-26T17:59:42.726Z,16.47
2023-01-26T18:03:44.937Z,17.13
2023-01-26T18:07:51.522Z,19.17
2023-01-26T18:11:53.816Z,12.90
2023-01-26T18:15:59.873Z,12.97
2023-01-26T18:20:07.604Z,13.60
2023-01-26T18:24:13.428Z,12.40
2023-01-26T18:28:28.802Z,11.67
2023-01-26T18:32:30.965Z,11.80
2023-01-26T18:36:33.812Z,11.80
2023-01-26T18:40:58.468Z,14.37
2023-01-26T18:45:03.546Z,14.93
2023-01-26T18:49:22.980Z,14.13
2023-01-26T18:53:50.552Z,16.53
2023-01-26T18:58:12.343Z,12.10
2023-01-26T19:02:47.036Z,14.50
2023-01-26T19:07:01.749Z,15.40
2023-01-26T19:11:05.797Z,15.37
2023-01-26T19:15:09.459Z,12.20
2023-01-26T19:19:11.914Z,16.73
2023-01-26T19:23:13.929Z,17.23
2023-01-26T19:27:23.675Z,19.13
2023-01-26T19:31:28.946Z,18.23
2023-01-26T19:35:32.082Z,18.37
2023-01-26T19:39:36.814Z,19.27
2023-01-26T19:43:38.945Z,20.40
2023-01-26T19:47:41.775Z,22.17
2023-01-26T19:51:43.692Z,22.00
2023-01-26T19:55:45.659Z,19.93
2023-01-26T19:59:47.563Z,21.50
2023-01-26T20:04:12.651Z,19.80
2023-01-26T20:08:14.660Z,18.33
2023-01-26T20:12:27.312Z,19.77
2023-01-26T20:21:00.673Z,17.80
2023-01-26T20:25:02.875Z,15.37
2023-01-26T20:29:08.763Z,15.30
2023-01-26T20:33:15.969Z,17.47
2023-01-26T20:37:21.663Z,15.83
2023-01-26T20:41:27.768Z,19.30
2023-01-26T20:45:29.852Z,20.43
2023-01-26T20:49:31.817Z,15.13
2023-01-26T20:53:34.086Z,20.33
2023-01-26T20:57:36.377Z,21.63
2023-01-26T21:01:44.185Z,21.20
2023-01-26T21:05:46.317Z,20.40
2023-01-26T21:09:48.298Z,21.90
2023-01-26T21:13:52.685Z,18.67
2023-01-26T21:17:59.709Z,21.93
2023-01-26T21:26:59.539Z,16.80
2023-01-26T21:31:09.495Z,18.30
2023-01-26T21:35:13.762Z,17.30
2023-01-26T21:39:15.762Z,20.17
2023-01-26T21:43:17.771Z,17.53
2023-01-26T21:47:19.793Z,19.60
2023-01-26T21:51:54.114Z,17.73
2023-01-26T21:55:55.911Z,16.73
2023-01-26T21:59:57.725Z,20.30
2023-01-26T22:04:01.693Z,19.60
2023-01-26T22:08:03.613Z,18.30
2023-01-26T22:12:05.962Z,22.27
2023-01-26T22:16:08.275Z,19.97
2023-01-26T22:20:11.790Z,22.67
2023-01-26T22:24:14.720Z,22.73
2023-01-26T22:28:16.666Z,20.07
2023-01-26T22:32:18.588Z,20.53
2023-01-26T22:36:21.388Z,17.77
2023-01-26T22:40:23.347Z,20.47
2023-01-26T22:44:25.242Z,19.70
2023-01-26T22:48:27.345Z,18.60
2023-01-26T22:52:29.657Z,20.70
2023-01-26T22:56:31.663Z,23.93
2023-01-26T23:00:33.995Z,22.43
2023-01-26T23:04:35.846Z,23.10
2023-01-26T23:08:37.823Z,20.17
2023-01-26T23:12:41.832Z,22.70
2023-01-26T23:16:43.865Z,28.67
2023-01-26T23:20:45.888Z,22.93
2023-01-26T23:25:07.664Z,27.40
2023-01-26T23:29:09.598Z,22.37
2023-01-26T23:33:11.463Z,24.23
2023-01-26T23:37:13.410Z,20.40
2023-01-26T23:41:17.879Z,19.03
2023-01-26T23:45:19.698Z,18.20
2023-01-26T23:49:21.654Z,19.80
2023-01-26T23:53:24.124Z,20.90
2023-01-26T23:57:26.393Z,16.97
